Terminal Aerodrome Forecast
Issued by NWS

Home | Current Version | Previous Version | Graphics & Text | Print | Product List | Glossary Off
Versions: 1 2 3 4 5 6 7 8 9 10 11 12 13 14 15 16 17

807
FTUS43 KABR 251720
TAFATY
TAF
KATY 251720Z 2518/2618 VRB05KT P6SM FEW200
     FM252300 13007KT P6SM BKN200
      TEMPO 2523/2524 4SM TS OVC040CB
     FM260000 07007KT P6SM -SHRA VCTS OVC070CB
     FM260300 06005KT P6SM OVC040
     FM261500 03008KT P6SM BKN110=

USA.gov is the U.S. government's official web portal to all federal, state and local government web resources and services.